sensor_id;sensor_type;location;lat;lon;timestamp;pressure;altitude;pressure_sealevel;temperature;humidity
72336;BME280;65062;48.446;8.834;2023-03-01T00:01:06;98187.81;;;-5.91;88.21
72336;BME280;65062;48.446;8.834;2023-03-01T00:04:06;98185.81;;;-6.03;87.26
72336;BME280;65062;48.446;8.834;2023-03-01T00:07:07;98186.47;;;-6.18;86.66
72336;BME280;65062;48.446;8.834;2023-03-01T00:10:08;98185.50;;;-6.15;87.58
72336;BME280;65062;48.446;8.834;2023-03-01T00:13:08;98190.81;;;-6.01;89.11
72336;BME280;65062;48.446;8.834;2023-03-01T00:16:12;98188.13;;;-5.98;88.27
72336;BME280;65062;48.446;8.834;2023-03-01T00:19:18;98190.47;;;-5.94;88.53
72336;BME280;65062;48.446;8.834;2023-03-01T00:22:19;98190.41;;;-5.92;88.61
72336;BME280;65062;48.446;8.834;2023-03-01T00:25:19;98188.91;;;-5.96;88.01
72336;BME280;65062;48.446;8.834;2023-03-01T00:28:19;98182.84;;;-5.94;87.12
72336;BME280;65062;48.446;8.834;2023-03-01T00:31:22;98184.34;;;-6.08;87.10
72336;BME280;65062;48.446;8.834;2023-03-01T00:34:22;98173.94;;;-6.04;86.86
72336;BME280;65062;48.446;8.834;2023-03-01T00:37:23;98172.72;;;-6.14;86.20
72336;BME280;65062;48.446;8.834;2023-03-01T00:40:25;98177.53;;;-6.08;86.44
72336;BME280;65062;48.446;8.834;2023-03-01T00:43:25;98181.84;;;-6.10;86.14
72336;BME280;65062;48.446;8.834;2023-03-01T00:46:26;98184.06;;;-6.41;86.05
72336;BME280;65062;48.446;8.834;2023-03-01T00:49:27;98171.59;;;-6.27;87.95
72336;BME280;65062;48.446;8.834;2023-03-01T00:52:27;98176.22;;;-6.16;87.94
72336;BME280;65062;48.446;8.834;2023-03-01T00:55:28;98168.00;;;-6.23;86.30
72336;BME280;65062;48.446;8.834;2023-03-01T00:58:29;98163.19;;;-6.29;87.30
72336;BME280;65062;48.446;8.834;2023-03-01T01:01:30;98161.59;;;-6.31;87.37
72336;BME280;65062;48.446;8.834;2023-03-01T01:04:31;98157.69;;;-6.38;88.69
72336;BME280;65062;48.446;8.834;2023-03-01T01:07:32;98151.75;;;-6.39;89.06
72336;BME280;65062;48.446;8.834;2023-03-01T01:10:35;98154.44;;;-6.42;88.52
72336;BME280;65062;48.446;8.834;2023-03-01T01:13:37;98143.59;;;-6.47;88.61
72336;BME280;65062;48.446;8.834;2023-03-01T01:16:37;98147.16;;;-6.31;89.05
72336;BME280;65062;48.446;8.834;2023-03-01T01:19:38;98144.63;;;-6.31;87.62
72336;BME280;65062;48.446;8.834;2023-03-01T01:22:38;98143.75;;;-6.50;86.78
72336;BME280;65062;48.446;8.834;2023-03-01T01:25:39;98140.06;;;-6.63;87.35
72336;BME280;65062;48.446;8.834;2023-03-01T01:28:39;98140.84;;;-6.61;88.22
72336;BME280;65062;48.446;8.834;2023-03-01T01:31:41;98126.94;;;-6.54;88.78
72336;BME280;65062;48.446;8.834;2023-03-01T01:34:42;98129.03;;;-6.43;89.45
72336;BME280;65062;48.446;8.834;2023-03-01T01:37:42;98133.50;;;-6.48;88.96
72336;BME280;65062;48.446;8.834;2023-03-01T01:40:47;98130.31;;;-6.53;88.41
72336;BME280;65062;48.446;8.834;2023-03-01T01:44:21;98120.91;;;-6.51;88.20
72336;BME280;65062;48.446;8.834;2023-03-01T01:47:24;98128.16;;;-6.63;88.97
72336;BME280;65062;48.446;8.834;2023-03-01T01:50:25;98134.03;;;-6.61;88.09
72336;BME280;65062;48.446;8.834;2023-03-01T01:53:26;98134.34;;;-6.68;88.48
72336;BME280;65062;48.446;8.834;2023-03-01T01:56:27;98132.28;;;-6.60;89.21
72336;BME280;65062;48.446;8.834;2023-03-01T01:59:30;98131.16;;;-6.53;88.85
72336;BME280;65062;48.446;8.834;2023-03-01T02:02:32;98122.03;;;-6.38;89.80
72336;BME280;65062;48.446;8.834;2023-03-01T02:05:40;98125.31;;;-6.36;87.90
72336;BME280;65062;48.446;8.834;2023-03-01T02:08:44;98118.44;;;-6.34;88.74
72336;BME280;65062;48.446;8.834;2023-03-01T02:11:47;98117.91;;;-6.22;88.99
72336;BME280;65062;48.446;8.834;2023-03-01T02:14:48;98110.28;;;-6.22;89.54
72336;BME280;65062;48.446;8.834;2023-03-01T02:17:48;98112.59;;;-5.99;88.92
72336;BME280;65062;48.446;8.834;2023-03-01T02:21:01;98107.66;;;-6.02;89.24
72336;BME280;65062;48.446;8.834;2023-03-01T02:24:54;98101.25;;;-5.92;89.02
72336;BME280;65062;48.446;8.834;2023-03-01T02:28:04;98097.25;;;-5.62;88.53
72336;BME280;65062;48.446;8.834;2023-03-01T02:31:02;98101.00;;;-5.52;89.17
72336;BME280;65062;48.446;8.834;2023-03-01T02:34:24;98083.78;;;-5.30;89.15
72336;BME280;65062;48.446;8.834;2023-03-01T02:37:29;98090.47;;;-5.11;88.16
72336;BME280;65062;48.446;8.834;2023-03-01T02:40:30;98090.53;;;-4.95;88.27
72336;BME280;65062;48.446;8.834;2023-03-01T02:43:33;98091.72;;;-4.85;87.52
72336;BME280;65062;48.446;8.834;2023-03-01T02:46:43;98089.69;;;-4.79;87.93
72336;BME280;65062;48.446;8.834;2023-03-01T02:49:43;98080.19;;;-4.60;88.12
72336;BME280;65062;48.446;8.834;2023-03-01T02:55:55;98068.41;;;-4.29;87.27
72336;BME280;65062;48.446;8.834;2023-03-01T02:58:56;98078.19;;;-4.22;86.44
72336;BME280;65062;48.446;8.834;2023-03-01T03:02:01;98081.28;;;-4.15;86.34
72336;BME280;65062;48.446;8.834;2023-03-01T03:05:10;98066.78;;;-4.15;85.98
72336;BME280;65062;48.446;8.834;2023-03-01T03:08:11;98062.81;;;-4.05;86.25
72336;BME280;65062;48.446;8.834;2023-03-01T03:11:11;98062.31;;;-3.96;86.11
72336;BME280;65062;48.446;8.834;2023-03-01T03:14:14;98066.94;;;-3.87;85.60
72336;BME280;65062;48.446;8.834;2023-03-01T03:17:15;98053.00;;;-3.81;85.51
72336;BME280;65062;48.446;8.834;2023-03-01T03:20:17;98059.34;;;-3.73;85.33
72336;BME280;65062;48.446;8.834;2023-03-01T03:23:20;98053.81;;;-3.65;85.12
72336;BME280;65062;48.446;8.834;2023-03-01T03:26:20;98066.50;;;-3.64;85.10
72336;BME280;65062;48.446;8.834;2023-03-01T03:29:21;98051.16;;;-3.64;85.12
72336;BME280;65062;48.446;8.834;2023-03-01T03:32:21;98048.72;;;-3.51;84.53
72336;BME280;65062;48.446;8.834;2023-03-01T03:35:30;98048.31;;;-3.44;84.40
72336;BME280;65062;48.446;8.834;2023-03-01T03:38:31;98043.00;;;-3.41;84.07
72336;BME280;65062;48.446;8.834;2023-03-01T03:41:34;98039.31;;;-3.35;83.92
72336;BME280;65062;48.446;8.834;2023-03-01T03:44:35;98036.78;;;-3.21;83.69
72336;BME280;65062;48.446;8.834;2023-03-01T03:47:36;98032.84;;;-3.27;83.95
72336;BME280;65062;48.446;8.834;2023-03-01T03:50:38;98037.13;;;-3.27;83.85
72336;BME280;65062;48.446;8.834;2023-03-01T03:53:39;98039.19;;;-3.04;83.38
72336;BME280;65062;48.446;8.834;2023-03-01T03:56:39;98036.59;;;-3.18;83.82
72336;BME280;65062;48.446;8.834;2023-03-01T03:59:40;98029.00;;;-3.20;83.71
72336;BME280;65062;48.446;8.834;2023-03-01T04:02:41;98031.47;;;-3.18;83.86
72336;BME280;65062;48.446;8.834;2023-03-01T04:05:42;98033.03;;;-3.16;83.78
72336;BME280;65062;48.446;8.834;2023-03-01T04:08:42;98027.66;;;-3.11;83.82
72336;BME280;65062;48.446;8.834;2023-03-01T04:11:43;98027.38;;;-3.07;84.03
72336;BME280;65062;48.446;8.834;2023-03-01T04:14:43;98028.94;;;-3.04;83.93
72336;BME280;65062;48.446;8.834;2023-03-01T04:17:46;98020.81;;;-2.97;84.30
72336;BME280;65062;48.446;8.834;2023-03-01T04:20:47;98022.56;;;-2.83;83.58
72336;BME280;65062;48.446;8.834;2023-03-01T04:23:48;98021.28;;;-2.90;83.20
72336;BME280;65062;48.446;8.834;2023-03-01T04:26:48;98021.03;;;-2.86;83.41
72336;BME280;65062;48.446;8.834;2023-03-01T04:29:48;98020.56;;;-2.78;83.12
72336;BME280;65062;48.446;8.834;2023-03-01T04:32:49;98017.34;;;-2.82;83.19
72336;BME280;65062;48.446;8.834;2023-03-01T04:35:50;98018.63;;;-2.75;83.06
72336;BME280;65062;48.446;8.834;2023-03-01T04:38:51;98012.81;;;-2.77;83.17
72336;BME280;65062;48.446;8.834;2023-03-01T04:41:52;98009.31;;;-2.76;83.33
72336;BME280;65062;48.446;8.834;2023-03-01T04:44:52;97999.25;;;-2.79;83.42
72336;BME280;65062;48.446;8.834;2023-03-01T04:47:53;98009.88;;;-2.71;83.31
72336;BME280;65062;48.446;8.834;2023-03-01T04:50:53;98008.94;;;-2.56;82.75
72336;BME280;65062;48.446;8.834;2023-03-01T04:53:54;98008.09;;;-2.42;82.52
72336;BME280;65062;48.446;8.834;2023-03-01T04:56:54;98015.78;;;-2.42;82.19
72336;BME280;65062;48.446;8.834;2023-03-01T04:59:55;98017.06;;;-2.35;82.24
72336;BME280;65062;48.446;8.834;2023-03-01T05:02:57;98010.94;;;-2.47;81.86
72336;BME280;65062;48.446;8.834;2023-03-01T05:05:59;98007.03;;;-2.52;82.67
72336;BME280;65062;48.446;8.834;2023-03-01T05:08:59;97997.59;;;-2.52;83.01
72336;BME280;65062;48.446;8.834;2023-03-01T05:12:00;98000.69;;;-2.47;83.08
72336;BME280;65062;48.446;8.834;2023-03-01T05:15:00;97993.75;;;-2.45;82.87
72336;BME280;65062;48.446;8.834;2023-03-01T05:18:01;97996.31;;;-2.45;83.08
72336;BME280;65062;48.446;8.834;2023-03-01T05:21:04;97999.50;;;-2.41;82.93
72336;BME280;65062;48.446;8.834;2023-03-01T05:24:05;97997.84;;;-2.42;82.80
72336;BME280;65062;48.446;8.834;2023-03-01T05:27:10;97995.09;;;-2.39;82.80
72336;BME280;65062;48.446;8.834;2023-03-01T05:30:12;97998.31;;;-2.36;83.16
72336;BME280;65062;48.446;8.834;2023-03-01T05:33:15;97997.28;;;-2.33;83.11
72336;BME280;65062;48.446;8.834;2023-03-01T05:36:15;97995.34;;;-2.16;82.87
72336;BME280;65062;48.446;8.834;2023-03-01T05:39:16;97990.78;;;-2.25;82.60
72336;BME280;65062;48.446;8.834;2023-03-01T05:42:16;97991.41;;;-2.21;82.45
72336;BME280;65062;48.446;8.834;2023-03-01T05:45:18;97999.25;;;-2.10;82.12
72336;BME280;65062;48.446;8.834;2023-03-01T05:48:18;97999.25;;;-2.10;81.97
72336;BME280;65062;48.446;8.834;2023-03-01T05:51:19;97995.44;;;-2.17;82.01
72336;BME280;65062;48.446;8.834;2023-03-01T05:54:20;97992.69;;;-2.14;82.31
72336;BME280;65062;48.446;8.834;2023-03-01T05:57:21;97989.84;;;-2.09;82.17
72336;BME280;65062;48.446;8.834;2023-03-01T06:00:22;97995.78;;;-2.09;82.59
72336;BME280;65062;48.446;8.834;2023-03-01T06:03:22;97989.09;;;-2.12;82.98
72336;BME280;65062;48.446;8.834;2023-03-01T06:06:24;97995.59;;;-2.06;82.77
72336;BME280;65062;48.446;8.834;2023-03-01T06:09:24;97997.16;;;-2.03;82.94
72336;BME280;65062;48.446;8.834;2023-03-01T06:12:26;97987.81;;;-2.04;82.44
72336;BME280;65062;48.446;8.834;2023-03-01T06:15:26;97986.13;;;-1.91;82.29
72336;BME280;65062;48.446;8.834;2023-03-01T06:18:26;97988.50;;;-1.88;82.15
72336;BME280;65062;48.446;8.834;2023-03-01T06:21:27;97988.69;;;-1.91;81.83
72336;BME280;65062;48.446;8.834;2023-03-01T06:24:27;97981.22;;;-1.82;82.04
72336;BME280;65062;48.446;8.834;2023-03-01T06:27:29;97974.75;;;-1.87;82.60
72336;BME280;65062;48.446;8.834;2023-03-01T06:30:29;97982.16;;;-1.83;82.84
72336;BME280;65062;48.446;8.834;2023-03-01T06:33:29;97984.22;;;-1.75;82.11
72336;BME280;65062;48.446;8.834;2023-03-01T06:36:29;97988.72;;;-1.79;81.93
72336;BME280;65062;48.446;8.834;2023-03-01T06:39:31;97991.38;;;-1.80;82.27
72336;BME280;65062;48.446;8.834;2023-03-01T06:42:31;97990.59;;;-1.81;81.89
72336;BME280;65062;48.446;8.834;2023-03-01T06:45:31;97985.03;;;-1.75;81.59
72336;BME280;65062;48.446;8.834;2023-03-01T06:48:33;97973.69;;;-1.71;81.49
72336;BME280;65062;48.446;8.834;2023-03-01T06:51:33;97962.19;;;-1.53;80.98
72336;BME280;65062;48.446;8.834;2023-03-01T06:54:34;97970.22;;;-1.57;81.12
72336;BME280;65062;48.446;8.834;2023-03-01T06:57:34;97976.50;;;-1.49;80.84
72336;BME280;65062;48.446;8.834;2023-03-01T07:00:34;97969.94;;;-1.40;81.01
72336;BME280;65062;48.446;8.834;2023-03-01T07:03:35;97965.84;;;-1.30;80.52
72336;BME280;65062;48.446;8.834;2023-03-01T07:06:35;97962.34;;;-1.29;80.86
72336;BME280;65062;48.446;8.834;2023-03-01T07:09:36;97961.03;;;-1.22;80.49
72336;BME280;65062;48.446;8.834;2023-03-01T07:12:36;97954.34;;;-1.12;80.92
72336;BME280;65062;48.446;8.834;2023-03-01T07:15:36;97960.53;;;-1.02;80.19
72336;BME280;65062;48.446;8.834;2023-03-01T07:18:37;97956.81;;;-0.98;79.22
72336;BME280;65062;48.446;8.834;2023-03-01T07:21:37;97954.25;;;-0.86;78.83
72336;BME280;65062;48.446;8.834;2023-03-01T07:24:38;97952.81;;;-0.77;78.34
72336;BME280;65062;48.446;8.834;2023-03-01T07:27:39;97954.75;;;-0.68;78.30
72336;BME280;65062;48.446;8.834;2023-03-01T07:30:39;97951.56;;;-0.59;77.47
72336;BME280;65062;48.446;8.834;2023-03-01T07:33:40;97940.97;;;-0.55;77.00
72336;BME280;65062;48.446;8.834;2023-03-01T07:36:41;97948.25;;;-0.61;76.37
72336;BME280;65062;48.446;8.834;2023-03-01T07:39:43;97947.41;;;-0.62;76.69
72336;BME280;65062;48.446;8.834;2023-03-01T07:42:43;97947.25;;;-0.71;76.34
72336;BME280;65062;48.446;8.834;2023-03-01T07:45:44;97947.78;;;-0.79;76.74
72336;BME280;65062;48.446;8.834;2023-03-01T07:48:44;97939.44;;;-0.82;76.77
72336;BME280;65062;48.446;8.834;2023-03-01T07:51:44;97939.63;;;-0.85;77.27
72336;BME280;65062;48.446;8.834;2023-03-01T07:54:45;97931.34;;;-0.89;77.84
72336;BME280;65062;48.446;8.834;2023-03-01T07:57:45;97933.06;;;-0.89;78.01
72336;BME280;65062;48.446;8.834;2023-03-01T08:00:45;97936.69;;;-0.92;78.26
72336;BME280;65062;48.446;8.834;2023-03-01T08:03:46;97927.91;;;-0.64;77.08
72336;BME280;65062;48.446;8.834;2023-03-01T08:06:46;97923.31;;;-0.36;75.88
72336;BME280;65062;48.446;8.834;2023-03-01T08:09:46;97925.41;;;-0.17;74.76
72336;BME280;65062;48.446;8.834;2023-03-01T08:12:47;97919.38;;;-0.05;73.23
72336;BME280;65062;48.446;8.834;2023-03-01T08:15:48;97914.38;;;0.04;73.41
72336;BME280;65062;48.446;8.834;2023-03-01T08:18:49;97925.28;;;0.08;72.21
72336;BME280;65062;48.446;8.834;2023-03-01T08:21:49;97916.94;;;0.28;71.64
72336;BME280;65062;48.446;8.834;2023-03-01T08:24:50;97912.56;;;0.41;70.61
72336;BME280;65062;48.446;8.834;2023-03-01T08:27:50;97915.25;;;0.51;71.11
72336;BME280;65062;48.446;8.834;2023-03-01T08:30:50;97924.56;;;0.64;71.31
72336;BME280;65062;48.446;8.834;2023-03-01T08:33:54;97916.81;;;0.64;69.34
72336;BME280;65062;48.446;8.834;2023-03-01T08:36:57;97918.28;;;0.79;70.40
72336;BME280;65062;48.446;8.834;2023-03-01T08:39:59;97914.25;;;0.75;69.19
72336;BME280;65062;48.446;8.834;2023-03-01T08:43:00;97915.56;;;0.92;68.52
72336;BME280;65062;48.446;8.834;2023-03-01T08:46:00;97915.47;;;1.15;68.23
72336;BME280;65062;48.446;8.834;2023-03-01T08:49:06;97915.50;;;1.26;67.51
72336;BME280;65062;48.446;8.834;2023-03-01T08:52:07;97913.47;;;1.41;67.58
72336;BME280;65062;48.446;8.834;2023-03-01T08:55:07;97909.47;;;1.48;66.23
72336;BME280;65062;48.446;8.834;2023-03-01T08:58:08;97908.19;;;1.64;66.38
72336;BME280;65062;48.446;8.834;2023-03-01T09:01:10;97899.34;;;1.78;65.17
72336;BME280;65062;48.446;8.834;2023-03-01T09:04:12;97893.72;;;1.73;65.47
72336;BME280;65062;48.446;8.834;2023-03-01T09:07:12;97887.63;;;1.74;65.21
72336;BME280;65062;48.446;8.834;2023-03-01T09:10:13;97880.78;;;1.84;66.74
72336;BME280;65062;48.446;8.834;2023-03-01T09:13:13;97886.03;;;1.93;64.83
72336;BME280;65062;48.446;8.834;2023-03-01T09:16:16;97874.75;;;2.05;63.27
72336;BME280;65062;48.446;8.834;2023-03-01T09:19:17;97871.56;;;2.34;63.14
72336;BME280;65062;48.446;8.834;2023-03-01T09:22:18;97870.16;;;2.30;62.62
72336;BME280;65062;48.446;8.834;2023-03-01T09:25:18;97871.63;;;2.43;62.37
72336;BME280;65062;48.446;8.834;2023-03-01T09:28:18;97868.97;;;2.34;60.70
72336;BME280;65062;48.446;8.834;2023-03-01T09:31:20;97873.53;;;2.41;60.26
72336;BME280;65062;48.446;8.834;2023-03-01T09:34:22;97876.97;;;2.31;61.48
72336;BME280;65062;48.446;8.834;2023-03-01T09:37:23;97876.09;;;2.41;61.79
72336;BME280;65062;48.446;8.834;2023-03-01T09:40:26;97876.53;;;2.46;60.72
72336;BME280;65062;48.446;8.834;2023-03-01T09:43:46;97859.28;;;2.47;60.66
72336;BME280;65062;48.446;8.834;2023-03-01T09:46:48;97859.91;;;2.39;60.33
72336;BME280;65062;48.446;8.834;2023-03-01T09:50:10;97867.81;;;2.47;60.18
72336;BME280;65062;48.446;8.834;2023-03-01T09:53:22;97860.66;;;2.51;59.90
72336;BME280;65062;48.446;8.834;2023-03-01T09:56:46;97858.91;;;2.51;60.11
72336;BME280;65062;48.446;8.834;2023-03-01T10:00:04;97862.63;;;2.58;59.01
72336;BME280;65062;48.446;8.834;2023-03-01T10:06:23;97861.84;;;2.67;59.73
72336;BME280;65062;48.446;8.834;2023-03-01T10:09:23;97849.66;;;2.79;60.18
72336;BME280;65062;48.446;8.834;2023-03-01T10:12:33;97847.34;;;2.76;59.06
72336;BME280;65062;48.446;8.834;2023-03-01T10:15:39;97839.00;;;2.72;58.16
72336;BME280;65062;48.446;8.834;2023-03-01T10:18:43;97837.00;;;3.06;59.11
72336;BME280;65062;48.446;8.834;2023-03-01T10:21:46;97838.41;;;3.19;58.11
72336;BME280;65062;48.446;8.834;2023-03-01T10:24:49;97840.34;;;3.27;57.69
72336;BME280;65062;48.446;8.834;2023-03-01T10:27:54;97840.91;;;3.30;58.66
72336;BME280;65062;48.446;8.834;2023-03-01T10:31:00;97833.75;;;3.53;57.19
72336;BME280;65062;48.446;8.834;2023-03-01T10:34:00;97834.03;;;3.69;56.88
72336;BME280;65062;48.446;8.834;2023-03-01T10:40:12;97838.81;;;4.21;55.80
72336;BME280;65062;48.446;8.834;2023-03-01T10:43:12;97828.03;;;4.25;55.04
72336;BME280;65062;48.446;8.834;2023-03-01T10:46:31;97830.22;;;4.11;55.14
72336;BME280;65062;48.446;8.834;2023-03-01T10:49:31;97823.03;;;3.95;55.28
72336;BME280;65062;48.446;8.834;2023-03-01T10:52:35;97817.97;;;3.94;55.08
72336;BME280;65062;48.446;8.834;2023-03-01T10:55:37;97805.16;;;3.92;56.46
72336;BME280;65062;48.446;8.834;2023-03-01T10:58:40;97799.94;;;4.30;55.35
72336;BME280;65062;48.446;8.834;2023-03-01T11:01:42;97786.91;;;4.13;55.44
72336;BME280;65062;48.446;8.834;2023-03-01T11:05:02;97787.53;;;4.34;56.18
72336;BME280;65062;48.446;8.834;2023-03-01T11:08:07;97791.72;;;4.54;53.95
72336;BME280;65062;48.446;8.834;2023-03-01T11:11:24;97786.69;;;4.43;53.33
72336;BME280;65062;48.446;8.834;2023-03-01T11:14:49;97781.00;;;4.76;52.53
72336;BME280;65062;48.446;8.834;2023-03-01T11:17:50;97779.78;;;5.07;52.50
72336;BME280;65062;48.446;8.834;2023-03-01T11:20:53;97765.09;;;4.89;54.40
72336;BME280;65062;48.446;8.834;2023-03-01T11:23:57;97771.84;;;4.72;52.98
72336;BME280;65062;48.446;8.834;2023-03-01T11:27:03;97764.19;;;4.80;52.38
72336;BME280;65062;48.446;8.834;2023-03-01T11:36:30;97733.19;;;5.50;53.20
72336;BME280;65062;48.446;8.834;2023-03-01T11:39:42;97732.44;;;6.36;50.11
72336;BME280;65062;48.446;8.834;2023-03-01T11:43:02;97723.47;;;6.90;47.50
72336;BME280;65062;48.446;8.834;2023-03-01T11:52:59;97717.66;;;10.31;39.77
72336;BME280;65062;48.446;8.834;2023-03-01T12:22:38;97674.66;;;16.16;26.24
72336;BME280;65062;48.446;8.834;2023-03-01T12:25:57;97664.28;;;16.14;27.19
72336;BME280;65062;48.446;8.834;2023-03-01T12:29:02;97661.91;;;16.06;26.47
72336;BME280;65062;48.446;8.834;2023-03-01T12:32:13;97657.06;;;15.79;27.26
72336;BME280;65062;48.446;8.834;2023-03-01T12:52:10;97608.16;;;17.98;23.70
72336;BME280;65062;48.446;8.834;2023-03-01T12:55:39;97598.44;;;17.10;25.15
72336;BME280;65062;48.446;8.834;2023-03-01T13:05:18;97588.16;;;20.81;20.93
72336;BME280;65062;48.446;8.834;2023-03-01T13:11:42;97589.38;;;15.91;26.69
72336;BME280;65062;48.446;8.834;2023-03-01T13:14:45;97587.88;;;14.71;27.50
72336;BME280;65062;48.446;8.834;2023-03-01T13:17:46;97583.44;;;16.56;24.91
72336;BME280;65062;48.446;8.834;2023-03-01T13:20:49;97585.34;;;16.49;25.97
72336;BME280;65062;48.446;8.834;2023-03-01T13:23:50;97585.75;;;17.59;23.80
72336;BME280;65062;48.446;8.834;2023-03-01T13:33:47;97569.09;;;17.70;24.52
72336;BME280;65062;48.446;8.834;2023-03-01T13:36:49;97560.72;;;18.42;22.62
72336;BME280;65062;48.446;8.834;2023-03-01T13:39:49;97561.94;;;18.63;22.57
72336;BME280;65062;48.446;8.834;2023-03-01T13:42:52;97563.59;;;16.83;25.13
72336;BME280;65062;48.446;8.834;2023-03-01T13:45:53;97568.16;;;15.97;27.68
72336;BME280;65062;48.446;8.834;2023-03-01T13:48:55;97572.09;;;16.31;25.33
72336;BME280;65062;48.446;8.834;2023-03-01T13:51:56;97570.41;;;17.09;24.24
72336;BME280;65062;48.446;8.834;2023-03-01T13:54:57;97565.03;;;17.56;23.99
72336;BME280;65062;48.446;8.834;2023-03-01T13:58:00;97563.13;;;17.86;23.41
72336;BME280;65062;48.446;8.834;2023-03-01T14:01:06;97561.25;;;19.24;21.85
72336;BME280;65062;48.446;8.834;2023-03-01T14:07:21;97556.31;;;17.90;22.98
72336;BME280;65062;48.446;8.834;2023-03-01T14:10:31;97559.91;;;18.82;22.99
72336;BME280;65062;48.446;8.834;2023-03-01T14:13:39;97554.63;;;20.80;20.22
72336;BME280;65062;48.446;8.834;2023-03-01T14:19:57;97566.56;;;21.47;19.62
72336;BME280;65062;48.446;8.834;2023-03-01T14:23:02;97565.50;;;20.95;18.78
72336;BME280;65062;48.446;8.834;2023-03-01T14:26:09;97571.88;;;19.52;21.92
72336;BME280;65062;48.446;8.834;2023-03-01T14:29:34;97567.97;;;17.78;23.58
72336;BME280;65062;48.446;8.834;2023-03-01T14:32:35;97580.06;;;19.34;21.13
72336;BME280;65062;48.446;8.834;2023-03-01T14:35:36;97584.63;;;18.71;21.88
72336;BME280;65062;48.446;8.834;2023-03-01T14:38:46;97576.06;;;17.24;23.80
72336;BME280;65062;48.446;8.834;2023-03-01T14:41:47;97572.22;;;17.79;23.39
72336;BME280;65062;48.446;8.834;2023-03-01T14:44:50;97574.88;;;18.25;22.47
72336;BME280;65062;48.446;8.834;2023-03-01T14:47:51;97570.38;;;20.22;20.09
72336;BME280;65062;48.446;8.834;2023-03-01T14:50:52;97575.34;;;20.35;20.59
72336;BME280;65062;48.446;8.834;2023-03-01T14:53:53;97580.50;;;20.08;20.25
72336;BME280;65062;48.446;8.834;2023-03-01T14:56:59;97573.34;;;19.76;21.06
72336;BME280;65062;48.446;8.834;2023-03-01T15:00:03;97575.78;;;18.53;21.34
72336;BME280;65062;48.446;8.834;2023-03-01T15:03:11;97567.38;;;18.56;22.42
72336;BME280;65062;48.446;8.834;2023-03-01T15:06:21;97566.66;;;17.57;23.73
72336;BME280;65062;48.446;8.834;2023-03-01T15:09:23;97568.06;;;18.29;23.20
72336;BME280;65062;48.446;8.834;2023-03-01T15:12:38;97564.91;;;17.51;23.66
72336;BME280;65062;48.446;8.834;2023-03-01T15:15:41;97573.63;;;15.16;26.14
72336;BME280;65062;48.446;8.834;2023-03-01T15:18:45;97571.22;;;13.67;29.67
72336;BME280;65062;48.446;8.834;2023-03-01T15:21:48;97580.84;;;13.08;31.50
72336;BME280;65062;48.446;8.834;2023-03-01T15:24:50;97574.84;;;13.40;30.57
72336;BME280;65062;48.446;8.834;2023-03-01T15:27:52;97589.41;;;13.49;30.48
72336;BME280;65062;48.446;8.834;2023-03-01T15:31:03;97563.53;;;13.98;28.96
72336;BME280;65062;48.446;8.834;2023-03-01T15:34:24;97556.63;;;14.23;29.21
72336;BME280;65062;48.446;8.834;2023-03-01T15:40:50;97537.13;;;14.82;28.45
72336;BME280;65062;48.446;8.834;2023-03-01T15:43:51;97520.88;;;15.78;26.12
72336;BME280;65062;48.446;8.834;2023-03-01T15:46:54;97522.16;;;14.31;28.49
72336;BME280;65062;48.446;8.834;2023-03-01T15:49:55;97508.50;;;13.71;29.76
72336;BME280;65062;48.446;8.834;2023-03-01T15:52:58;97527.31;;;13.22;29.85
72336;BME280;65062;48.446;8.834;2023-03-01T15:55:59;97534.59;;;13.72;30.03
72336;BME280;65062;48.446;8.834;2023-03-01T15:59:01;97538.63;;;13.62;29.96
72336;BME280;65062;48.446;8.834;2023-03-01T16:02:07;97536.88;;;12.69;31.21
72336;BME280;65062;48.446;8.834;2023-03-01T16:05:30;97543.94;;;11.60;33.28
72336;BME280;65062;48.446;8.834;2023-03-01T16:08:31;97548.28;;;10.33;36.30
72336;BME280;65062;48.446;8.834;2023-03-01T16:11:32;97542.22;;;9.38;39.24
72336;BME280;65062;48.446;8.834;2023-03-01T16:14:34;97547.88;;;8.82;40.52
72336;BME280;65062;48.446;8.834;2023-03-01T16:17:34;97543.19;;;8.46;41.33
72336;BME280;65062;48.446;8.834;2023-03-01T16:20:34;97541.19;;;8.10;43.38
72336;BME280;65062;48.446;8.834;2023-03-01T16:23:35;97540.00;;;7.74;43.81
72336;BME280;65062;48.446;8.834;2023-03-01T16:26:36;97547.22;;;7.56;43.96
72336;BME280;65062;48.446;8.834;2023-03-01T16:29:37;97556.97;;;7.46;44.54
72336;BME280;65062;48.446;8.834;2023-03-01T16:32:42;97557.31;;;7.19;45.80
72336;BME280;65062;48.446;8.834;2023-03-01T16:35:43;97548.81;;;6.93;45.97
72336;BME280;65062;48.446;8.834;2023-03-01T16:38:44;97557.94;;;6.81;47.80
72336;BME280;65062;48.446;8.834;2023-03-01T16:41:44;97562.72;;;6.52;47.98
72336;BME280;65062;48.446;8.834;2023-03-01T16:44:44;97568.81;;;6.26;48.81
72336;BME280;65062;48.446;8.834;2023-03-01T16:47:45;97571.16;;;6.04;48.61
72336;BME280;65062;48.446;8.834;2023-03-01T16:50:55;97570.72;;;5.83;50.75
72336;BME280;65062;48.446;8.834;2023-03-01T16:53:55;97567.44;;;5.55;52.24
72336;BME280;65062;48.446;8.834;2023-03-01T16:56:56;97575.50;;;5.27;53.48
72336;BME280;65062;48.446;8.834;2023-03-01T16:59:57;97587.00;;;5.07;53.75
72336;BME280;65062;48.446;8.834;2023-03-01T17:02:57;97591.91;;;4.92;55.66
72336;BME280;65062;48.446;8.834;2023-03-01T17:06:02;97593.19;;;4.88;53.21
72336;BME280;65062;48.446;8.834;2023-03-01T17:09:02;97595.38;;;4.66;55.70
72336;BME280;65062;48.446;8.834;2023-03-01T17:12:04;97606.34;;;4.50;56.94
72336;BME280;65062;48.446;8.834;2023-03-01T17:15:05;97604.25;;;4.09;57.13
72336;BME280;65062;48.446;8.834;2023-03-01T17:18:06;97605.47;;;3.78;59.05
72336;BME280;65062;48.446;8.834;2023-03-01T17:21:08;97613.50;;;3.65;59.29
72336;BME280;65062;48.446;8.834;2023-03-01T17:24:09;97624.31;;;3.51;60.34
72336;BME280;65062;48.446;8.834;2023-03-01T17:27:09;97618.47;;;3.30;60.74
72336;BME280;65062;48.446;8.834;2023-03-01T17:30:13;97627.03;;;3.02;61.26
72336;BME280;65062;48.446;8.834;2023-03-01T17:33:14;97638.19;;;2.84;61.95
72336;BME280;65062;48.446;8.834;2023-03-01T17:36:15;97633.78;;;2.65;62.72
72336;BME280;65062;48.446;8.834;2023-03-01T17:39:15;97632.00;;;2.56;63.34
72336;BME280;65062;48.446;8.834;2023-03-01T17:42:16;97625.16;;;2.46;62.93
72336;BME280;65062;48.446;8.834;2023-03-01T17:45:16;97628.84;;;2.43;63.37